createdAt,value
2018-07-16T00:00:44.342Z,81.40
2018-07-16T00:03:13.152Z,81.80
2018-07-16T00:05:41.978Z,82.00
2018-07-16T00:08:10.662Z,82.00
2018-07-16T00:10:39.405Z,82.10
2018-07-16T00:13:08.269Z,82.10
2018-07-16T00:15:37.093Z,82.10
2018-07-16T00:18:05.960Z,82.30
2018-07-16T00:20:34.717Z,81.90
2018-07-16T00:23:03.612Z,81.40
2018-07-16T00:25:32.591Z,81.30
2018-07-16T00:28:01.520Z,81.30
2018-07-16T00:30:30.271Z,81.70
2018-07-16T00:32:59.049Z,82.30
2018-07-16T00:35:27.905Z,82.40
2018-07-16T00:37:56.612Z,82.20
2018-07-16T00:40:25.496Z,82.00
2018-07-16T00:42:54.298Z,81.90
2018-07-16T00:45:23.150Z,81.80
2018-07-16T00:47:51.842Z,81.50
2018-07-16T00:50:20.714Z,81.20
2018-07-16T00:52:49.531Z,81.10
2018-07-16T00:55:18.490Z,81.40
2018-07-16T00:57:47.318Z,81.30
2018-07-16T01:00:16.178Z,81.40
2018-07-16T01:02:45.011Z,81.40
2018-07-16T01:05:13.853Z,81.40
2018-07-16T01:07:42.640Z,81.30
2018-07-16T01:10:11.465Z,81.00
2018-07-16T01:12:40.348Z,81.00
2018-07-16T01:15:09.172Z,81.20
2018-07-16T01:17:38.066Z,81.40
2018-07-16T01:20:07.138Z,81.40
2018-07-16T01:22:36.023Z,81.70
2018-07-16T01:25:04.827Z,81.70
2018-07-16T01:27:33.665Z,81.70
2018-07-16T01:30:02.402Z,81.80
2018-07-16T01:32:31.181Z,81.80
2018-07-16T01:35:00.021Z,81.80
2018-07-16T01:37:28.808Z,81.70
2018-07-16T01:39:57.698Z,81.60
2018-07-16T01:42:26.575Z,81.20
2018-07-16T01:44:55.379Z,81.10
2018-07-16T01:47:24.253Z,80.60
2018-07-16T01:49:53.035Z,80.70
2018-07-16T01:52:21.846Z,80.80
2018-07-16T01:54:50.602Z,80.20
2018-07-16T01:57:19.336Z,80.30
2018-07-16T01:59:48.042Z,79.70
2018-07-16T02:02:16.869Z,80.80
2018-07-16T02:04:45.596Z,81.10
2018-07-16T02:07:14.567Z,81.20
2018-07-16T02:09:43.367Z,81.10
2018-07-16T02:12:12.163Z,81.20
2018-07-16T02:14:41.050Z,81.20
2018-07-16T02:17:09.799Z,81.10
2018-07-16T02:19:38.596Z,80.60
2018-07-16T02:22:07.438Z,80.50
2018-07-16T02:24:36.268Z,80.40
2018-07-16T02:27:05.189Z,81.00
2018-07-16T02:29:34.024Z,81.50
2018-07-16T02:32:02.817Z,81.60
2018-07-16T02:34:31.817Z,81.80
2018-07-16T02:37:00.657Z,81.90
2018-07-16T02:39:29.384Z,82.00
2018-07-16T02:41:58.736Z,82.00
2018-07-16T02:44:27.636Z,81.60
2018-07-16T02:46:56.430Z,81.50
2018-07-16T02:49:25.180Z,81.10
2018-07-16T02:51:54.173Z,81.60
2018-07-16T02:54:23.136Z,81.90
2018-07-16T02:56:51.944Z,81.90
2018-07-16T02:59:20.957Z,81.60
2018-07-16T03:01:49.830Z,81.40
2018-07-16T03:04:18.684Z,81.30
2018-07-16T03:06:47.522Z,81.00
2018-07-16T03:09:16.329Z,81.20
2018-07-16T03:11:45.132Z,81.40
2018-07-16T03:14:13.975Z,81.80
2018-07-16T03:16:42.832Z,82.30
2018-07-16T03:19:11.657Z,82.50
2018-07-16T03:21:40.425Z,82.30
2018-07-16T03:24:09.337Z,82.20
2018-07-16T03:26:38.182Z,81.90
2018-07-16T03:29:07.092Z,82.00
2018-07-16T03:31:35.887Z,82.10
2018-07-16T03:34:04.754Z,82.10
2018-07-16T03:36:33.549Z,82.00
2018-07-16T03:39:02.455Z,82.00
2018-07-16T03:41:31.258Z,82.30
2018-07-16T03:44:00.094Z,82.30
2018-07-16T03:46:29.766Z,82.10
2018-07-16T03:48:58.593Z,82.00
2018-07-16T03:51:27.373Z,81.90
2018-07-16T03:53:56.223Z,82.10
2018-07-16T03:56:24.979Z,82.20
2018-07-16T03:58:53.955Z,82.00
2018-07-16T04:01:22.842Z,82.10
2018-07-16T04:03:51.595Z,82.20
2018-07-16T04:06:20.390Z,82.20
2018-07-16T04:08:49.226Z,82.10
2018-07-16T04:11:18.124Z,82.30
2018-07-16T04:13:47.398Z,82.40
2018-07-16T04:16:16.224Z,82.50
2018-07-16T04:18:44.993Z,82.40
2018-07-16T04:21:13.790Z,82.50
2018-07-16T04:23:42.700Z,82.40
2018-07-16T04:26:11.649Z,82.50
2018-07-16T04:28:40.485Z,82.70
2018-07-16T04:31:09.299Z,82.70
2018-07-16T04:33:38.087Z,83.00
2018-07-16T04:36:06.858Z,83.00
2018-07-16T04:38:35.674Z,83.10
2018-07-16T04:41:04.574Z,83.10
2018-07-16T04:43:35.803Z,83.30
2018-07-16T04:46:04.698Z,83.10
2018-07-16T04:48:33.645Z,83.40
2018-07-16T04:51:02.786Z,83.40
2018-07-16T04:53:31.644Z,83.30
2018-07-16T04:56:00.449Z,83.30
2018-07-16T04:58:29.192Z,83.20
2018-07-16T05:00:58.034Z,83.30
2018-07-16T05:03:26.830Z,82.90
2018-07-16T05:05:55.594Z,82.50
2018-07-16T05:08:32.473Z,82.30
2018-07-16T05:11:01.416Z,81.80
2018-07-16T05:13:30.496Z,81.30
2018-07-16T05:15:59.387Z,81.20
2018-07-16T05:18:28.350Z,80.90
2018-07-16T05:20:57.122Z,80.70
2018-07-16T05:23:25.945Z,80.80
2018-07-16T05:25:59.430Z,80.60
2018-07-16T05:28:28.514Z,80.50
2018-07-16T05:30:57.373Z,80.30
2018-07-16T05:33:26.293Z,80.50
2018-07-16T05:35:55.342Z,80.40
2018-07-16T05:38:28.042Z,79.60
2018-07-16T05:40:56.777Z,79.80
2018-07-16T05:43:25.715Z,79.70
2018-07-16T05:45:54.449Z,79.50
2018-07-16T05:48:24.185Z,79.20
2018-07-16T05:50:52.981Z,79.60
2018-07-16T05:53:21.876Z,79.40
2018-07-16T05:55:50.751Z,79.80
2018-07-16T05:58:19.574Z,80.00
2018-07-16T06:00:48.214Z,80.20
2018-07-16T06:03:47.969Z,80.60
2018-07-16T06:06:17.810Z,81.20
2018-07-16T06:08:46.541Z,80.70
2018-07-16T06:11:17.898Z,80.80
2018-07-16T06:13:46.698Z,81.10
2018-07-16T06:16:15.458Z,81.00
2018-07-16T06:18:47.470Z,81.20
2018-07-16T06:21:16.776Z,80.80
2018-07-16T06:23:45.613Z,81.10
2018-07-16T06:26:14.413Z,80.50
2018-07-16T06:28:43.240Z,80.80
2018-07-16T06:31:12.038Z,81.00
2018-07-16T06:33:40.810Z,81.30
2018-07-16T06:36:09.597Z,81.30
2018-07-16T06:38:38.507Z,81.40
2018-07-16T06:41:09.061Z,81.20
2018-07-16T06:43:37.713Z,81.20
2018-07-16T06:46:07.586Z,81.50
2018-07-16T06:48:36.377Z,81.30
2018-07-16T06:51:05.029Z,80.60
2018-07-16T06:53:55.419Z,80.80
2018-07-16T06:56:24.426Z,80.50
2018-07-16T06:58:53.181Z,79.50
2018-07-16T07:01:21.941Z,80.20
2018-07-16T07:03:50.904Z,80.20
2018-07-16T07:06:19.660Z,80.10
2018-07-16T07:08:48.413Z,79.90
2018-07-16T07:11:17.196Z,79.50
2018-07-16T07:13:47.217Z,79.60
2018-07-16T07:16:16.032Z,79.30
2018-07-16T07:18:44.788Z,79.60
2018-07-16T07:21:13.573Z,79.40
2018-07-16T07:23:42.315Z,79.10
2018-07-16T07:26:10.994Z,78.90
2018-07-16T07:28:39.936Z,79.00
2018-07-16T07:31:08.867Z,77.90
2018-07-16T07:33:38.028Z,78.20
2018-07-16T07:36:10.216Z,77.60
2018-07-16T07:38:39.042Z,76.50
2018-07-16T07:41:08.328Z,77.00
2018-07-16T07:43:39.258Z,75.30
2018-07-16T07:46:08.349Z,74.70
2018-07-16T07:48:37.150Z,75.20
2018-07-16T07:51:06.007Z,74.30
2018-07-16T07:53:34.925Z,74.00
2018-07-16T07:56:03.751Z,73.30
2018-07-16T07:58:32.462Z,73.70
2018-07-16T08:01:01.258Z,73.60
2018-07-16T08:03:29.999Z,73.40
2018-07-16T08:06:04.038Z,73.60
2018-07-16T08:08:32.892Z,73.50
2018-07-16T08:11:02.191Z,73.60
2018-07-16T08:13:31.576Z,73.40
2018-07-16T08:16:01.296Z,73.50
2018-07-16T08:18:30.293Z,73.30
2018-07-16T08:20:59.223Z,73.50
2018-07-16T08:23:27.931Z,73.70
2018-07-16T08:25:57.002Z,73.90
2018-07-16T08:28:25.795Z,74.30
2018-07-16T08:30:54.681Z,74.20
2018-07-16T08:33:23.585Z,73.90
2018-07-16T08:35:52.407Z,74.00
2018-07-16T08:38:21.299Z,74.00
2018-07-16T08:40:50.090Z,73.80
2018-07-16T08:43:18.880Z,73.70
2018-07-16T08:45:47.764Z,73.30
2018-07-16T08:48:16.525Z,73.30
2018-07-16T08:50:45.353Z,73.10
2018-07-16T08:53:14.266Z,73.20
2018-07-16T08:55:43.073Z,73.30
2018-07-16T08:58:13.676Z,72.60
2018-07-16T09:00:42.410Z,72.10
2018-07-16T09:03:11.131Z,72.00
2018-07-16T09:05:39.954Z,71.90
2018-07-16T09:08:09.454Z,71.60
2018-07-16T09:10:38.242Z,71.70
2018-07-16T09:13:09.504Z,71.70
2018-07-16T09:15:38.192Z,71.50
2018-07-16T09:18:07.940Z,71.60
2018-07-16T09:20:36.675Z,71.80
2018-07-16T09:23:05.642Z,71.90
2018-07-16T09:25:35.093Z,72.10
2018-07-16T09:28:03.845Z,72.10
2018-07-16T09:30:32.738Z,72.10
2018-07-16T09:33:02.404Z,71.90
2018-07-16T09:35:31.153Z,71.50
2018-07-16T09:37:59.977Z,71.50
2018-07-16T09:40:28.790Z,71.30
2018-07-16T09:42:57.619Z,70.80
2018-07-16T09:45:26.700Z,70.80
2018-07-16T09:47:55.546Z,70.00
2018-07-16T09:50:25.293Z,69.90
2018-07-16T09:52:54.032Z,70.30
2018-07-16T09:55:22.813Z,68.70
2018-07-16T09:57:51.658Z,68.70
2018-07-16T10:00:27.274Z,68.10
2018-07-16T10:02:56.116Z,68.60
2018-07-16T10:05:25.976Z,68.60
2018-07-16T10:07:54.726Z,67.80
2018-07-16T10:10:23.497Z,67.30
2018-07-16T10:12:53.478Z,68.00
2018-07-16T10:15:29.094Z,67.80
2018-07-16T10:17:59.838Z,67.50
2018-07-16T10:20:29.255Z,67.10
2018-07-16T10:22:58.061Z,67.60
2018-07-16T10:25:26.832Z,66.50
2018-07-16T10:27:56.478Z,66.30
2018-07-16T10:30:26.250Z,65.00
2018-07-16T10:32:55.118Z,64.90
2018-07-16T10:35:23.964Z,63.90
2018-07-16T10:37:52.779Z,63.80
2018-07-16T10:40:22.053Z,63.30
2018-07-16T10:42:50.809Z,62.60
2018-07-16T10:45:19.597Z,61.70
2018-07-16T10:47:49.367Z,61.20
2018-07-16T10:50:18.214Z,61.50
2018-07-16T10:52:47.056Z,61.60
2018-07-16T10:55:15.949Z,61.20
2018-07-16T10:57:44.775Z,61.30
2018-07-16T11:00:13.555Z,61.20
2018-07-16T11:02:42.519Z,61.70
2018-07-16T11:05:11.374Z,62.30
2018-07-16T11:07:40.170Z,62.10
2018-07-16T11:10:09.325Z,62.00
2018-07-16T11:12:39.009Z,62.00
2018-07-16T11:15:07.910Z,61.60
2018-07-16T11:17:36.637Z,62.10
2018-07-16T11:20:05.589Z,63.30
2018-07-16T11:22:34.405Z,64.90
2018-07-16T11:25:03.362Z,65.20
2018-07-16T11:27:32.166Z,64.80
2018-07-16T11:30:01.002Z,64.50
2018-07-16T11:32:29.954Z,64.90
2018-07-16T11:34:58.847Z,64.80
2018-07-16T11:37:27.580Z,64.90
2018-07-16T11:39:56.369Z,64.40
2018-07-16T11:42:25.175Z,64.50
2018-07-16T11:44:54.877Z,64.60
2018-07-16T11:47:23.584Z,64.20
2018-07-16T11:49:55.514Z,64.30
2018-07-16T11:52:24.448Z,63.90
2018-07-16T11:54:54.606Z,64.50
2018-07-16T11:57:23.382Z,63.80
2018-07-16T11:59:52.155Z,63.90
2018-07-16T12:02:20.974Z,63.30
2018-07-16T12:04:51.014Z,62.80
2018-07-16T12:07:19.870Z,63.20
2018-07-16T12:09:48.663Z,62.90
2018-07-16T12:12:17.526Z,62.90
2018-07-16T12:14:46.232Z,62.60
2018-07-16T12:17:18.362Z,62.00
2018-07-16T12:19:47.127Z,61.60
2018-07-16T12:22:15.945Z,62.00
2018-07-16T12:24:44.850Z,62.60
2018-07-16T12:27:13.596Z,62.30
2018-07-16T12:29:43.428Z,61.90
2018-07-16T12:32:12.281Z,61.30
2018-07-16T12:34:41.165Z,61.40
2018-07-16T12:37:10.060Z,60.60
2018-07-16T12:39:38.886Z,61.30
2018-07-16T12:42:07.621Z,61.50
2018-07-16T12:44:36.356Z,61.60
2018-07-16T12:47:05.328Z,59.70
2018-07-16T12:49:34.516Z,59.50
2018-07-16T12:52:03.420Z,59.50
2018-07-16T12:54:37.705Z,59.20
2018-07-16T12:57:07.242Z,58.80
2018-07-16T12:59:36.001Z,59.40
2018-07-16T13:02:04.971Z,59.60
2018-07-16T13:04:34.138Z,59.30
2018-07-16T13:07:04.973Z,59.70
2018-07-16T13:09:34.478Z,59.30
2018-07-16T13:12:03.769Z,59.10
2018-07-16T13:15:35.387Z,58.30
2018-07-16T13:18:04.369Z,58.00
2018-07-16T13:20:33.682Z,58.80
2018-07-16T13:23:02.405Z,58.70
2018-07-16T13:25:31.178Z,58.20
2018-07-16T13:28:00.025Z,58.10
2018-07-16T13:30:28.868Z,58.10
2018-07-16T13:32:58.036Z,58.50
2018-07-16T13:35:26.842Z,58.50
2018-07-16T13:37:55.787Z,58.60
2018-07-16T13:40:24.593Z,58.30
2018-07-16T13:42:53.390Z,57.60
2018-07-16T13:45:22.114Z,57.10
2018-07-16T13:47:52.860Z,58.60
2018-07-16T13:50:21.692Z,58.40
2018-07-16T13:52:51.052Z,58.50
2018-07-16T13:55:19.887Z,58.00
2018-07-16T13:57:48.701Z,58.30
2018-07-16T14:00:17.518Z,57.70
2018-07-16T14:02:46.450Z,58.10
2018-07-16T14:05:15.350Z,58.70
2018-07-16T14:07:45.143Z,57.80
2018-07-16T14:10:14.035Z,58.70
2018-07-16T14:12:42.898Z,58.00
2018-07-16T14:15:11.744Z,58.00
2018-07-16T14:17:41.469Z,57.60
2018-07-16T14:20:10.337Z,57.40
2018-07-16T14:22:39.885Z,57.70
2018-07-16T14:25:08.791Z,58.50
2018-07-16T14:27:37.667Z,57.60
2018-07-16T14:30:06.680Z,57.70
2018-07-16T14:32:35.589Z,57.30
2018-07-16T14:35:04.447Z,56.90
2018-07-16T14:37:33.333Z,57.00
2018-07-16T14:40:02.704Z,57.40
2018-07-16T14:42:31.884Z,57.00
2018-07-16T14:45:01.507Z,56.50
2018-07-16T14:47:31.352Z,56.80
2018-07-16T14:50:00.163Z,56.00
2018-07-16T14:52:29.325Z,56.30
2018-07-16T14:54:58.141Z,56.30
2018-07-16T14:57:27.028Z,57.30
2018-07-16T14:59:55.867Z,57.80
2018-07-16T15:02:24.702Z,58.30
2018-07-16T15:04:53.585Z,58.00
2018-07-16T15:07:22.354Z,57.20
2018-07-16T15:09:51.111Z,56.90
2018-07-16T15:12:20.003Z,56.80
2018-07-16T15:14:50.278Z,56.00
2018-07-16T15:17:20.196Z,55.50
2018-07-16T15:19:50.480Z,55.70
2018-07-16T15:22:21.109Z,55.00
2018-07-16T15:24:49.916Z,55.10
2018-07-16T15:27:22.080Z,54.80
2018-07-16T15:29:51.028Z,54.70
2018-07-16T15:32:19.889Z,54.70
2018-07-16T15:34:50.304Z,55.00
2018-07-16T15:37:19.194Z,55.10
2018-07-16T15:39:47.984Z,55.00
2018-07-16T15:42:17.606Z,55.30
2018-07-16T15:44:46.506Z,55.30
2018-07-16T15:47:15.364Z,55.80
2018-07-16T15:49:44.569Z,55.90
2018-07-16T15:52:13.428Z,55.60
2018-07-16T15:54:43.677Z,54.80
2018-07-16T15:57:12.566Z,54.60
2018-07-16T15:59:41.453Z,54.10
2018-07-16T16:02:10.888Z,54.60
2018-07-16T16:04:39.747Z,55.00
2018-07-16T16:07:08.967Z,54.80
2018-07-16T16:09:39.706Z,54.80
2018-07-16T16:12:09.188Z,54.80
2018-07-16T16:14:39.247Z,55.20
2018-07-16T16:17:09.568Z,55.20
2018-07-16T16:19:38.505Z,56.10
2018-07-16T16:22:07.435Z,57.20
2018-07-16T16:24:36.257Z,58.20
2018-07-16T16:27:05.133Z,58.50
2018-07-16T16:29:33.993Z,57.10
2018-07-16T16:32:02.927Z,57.10
2018-07-16T16:34:31.909Z,57.00
2018-07-16T16:37:00.672Z,58.00
2018-07-16T16:39:29.428Z,58.40
2018-07-16T16:41:58.297Z,59.10
2018-07-16T16:44:27.100Z,59.10
2018-07-16T16:46:55.914Z,59.70
2018-07-16T16:49:25.842Z,60.00
2018-07-16T16:54:01.361Z,59.90
2018-07-16T16:56:30.374Z,59.90
2018-07-16T16:58:59.050Z,58.30
2018-07-16T17:01:27.785Z,56.70
2018-07-16T17:03:56.613Z,55.80
2018-07-16T17:06:25.685Z,54.80
2018-07-16T17:08:54.400Z,54.70
2018-07-16T17:11:23.126Z,54.20
2018-07-16T17:13:51.986Z,53.00
2018-07-16T17:16:20.696Z,52.00
2018-07-16T17:18:49.523Z,51.70
2018-07-16T17:21:18.323Z,51.90
2018-07-16T17:23:47.203Z,51.50
2018-07-16T17:26:15.945Z,52.40
2018-07-16T17:28:44.730Z,54.00
2018-07-16T17:31:13.456Z,55.20
2018-07-16T17:33:42.290Z,56.70
2018-07-16T17:36:11.045Z,57.20
2018-07-16T17:38:39.869Z,57.40
2018-07-16T17:41:08.794Z,57.50
2018-07-16T17:43:38.844Z,57.40
2018-07-16T17:46:07.769Z,57.50
2018-07-16T17:48:36.562Z,58.00
2018-07-16T17:51:05.407Z,59.40
2018-07-16T17:53:34.346Z,60.40
2018-07-16T17:56:03.108Z,59.60
2018-07-16T17:58:31.897Z,60.00
2018-07-16T18:01:00.650Z,59.80
2018-07-16T18:03:29.412Z,59.90
2018-07-16T18:05:58.430Z,60.20
2018-07-16T18:08:27.186Z,60.60
2018-07-16T18:10:56.128Z,61.10
2018-07-16T18:13:27.049Z,61.90
2018-07-16T18:15:55.873Z,61.50
2018-07-16T18:18:24.619Z,61.60
2018-07-16T18:20:53.565Z,61.80
2018-07-16T18:23:22.311Z,62.10
2018-07-16T18:25:51.113Z,61.90
2018-07-16T18:28:23.414Z,60.80
2018-07-16T18:30:52.451Z,60.80
2018-07-16T18:33:21.242Z,61.20
2018-07-16T18:35:50.226Z,61.40
2018-07-16T18:38:19.073Z,61.80
2018-07-16T18:40:47.926Z,61.80
2018-07-16T18:43:16.764Z,62.10
2018-07-16T18:45:45.632Z,62.50
2018-07-16T18:48:14.432Z,62.10
2018-07-16T18:50:43.272Z,62.60
2018-07-16T18:53:12.126Z,62.60
2018-07-16T18:55:41.055Z,62.20
2018-07-16T18:58:09.901Z,62.50
2018-07-16T19:00:38.652Z,62.30
2018-07-16T19:03:07.561Z,62.50
2018-07-16T19:05:38.382Z,62.70
2018-07-16T19:08:07.281Z,63.00
2018-07-16T19:10:36.268Z,63.10
2018-07-16T19:13:05.987Z,62.80
2018-07-16T19:15:34.831Z,63.10
2018-07-16T19:18:03.730Z,63.10
2018-07-16T19:20:33.793Z,63.60
2018-07-16T19:23:03.181Z,63.40
2018-07-16T19:25:32.168Z,63.90
2018-07-16T19:28:01.207Z,64.00
2018-07-16T19:30:30.766Z,63.80
2018-07-16T19:32:59.511Z,63.80
2018-07-16T19:35:28.804Z,64.10
2018-07-16T19:37:58.045Z,64.20
2018-07-16T19:40:26.934Z,64.40
2018-07-16T19:42:55.720Z,64.50
2018-07-16T19:45:24.638Z,64.80
2018-07-16T19:47:54.306Z,65.00
2018-07-16T19:50:24.384Z,65.00
2018-07-16T19:52:53.341Z,64.90
2018-07-16T19:55:22.154Z,64.80
2018-07-16T19:57:51.201Z,64.80
2018-07-16T20:00:20.408Z,64.80
2018-07-16T20:02:49.195Z,65.00
2018-07-16T20:05:18.090Z,64.90
2018-07-16T20:07:46.977Z,65.10
2018-07-16T20:10:15.814Z,65.50
2018-07-16T20:12:44.698Z,65.40
2018-07-16T20:15:18.448Z,65.20
2018-07-16T20:17:47.277Z,65.40
2018-07-16T20:20:16.157Z,65.90
2018-07-16T20:22:44.890Z,66.40
2018-07-16T20:25:13.670Z,66.60
2018-07-16T20:27:42.490Z,66.60
2018-07-16T20:30:11.554Z,66.60
2018-07-16T20:32:40.241Z,68.70
2018-07-16T20:35:09.919Z,70.10
2018-07-16T20:37:38.742Z,73.00
2018-07-16T20:40:07.451Z,75.80
2018-07-16T20:42:36.167Z,77.40
2018-07-16T20:45:05.044Z,80.20
2018-07-16T20:47:33.793Z,81.90
2018-07-16T20:50:02.559Z,82.80
2018-07-16T20:52:31.298Z,80.80
2018-07-16T20:55:00.104Z,79.30
2018-07-16T20:57:28.945Z,79.00
2018-07-16T20:59:57.739Z,79.80
2018-07-16T21:02:26.492Z,82.50
2018-07-16T21:04:55.368Z,82.60
2018-07-16T21:07:24.294Z,82.60
2018-07-16T21:09:53.172Z,83.40
2018-07-16T21:12:22.552Z,84.00
2018-07-16T21:14:52.490Z,84.70
2018-07-16T21:17:21.358Z,85.70
2018-07-16T21:19:50.195Z,85.80
2018-07-16T21:22:18.962Z,86.30
2018-07-16T21:24:47.823Z,84.20
2018-07-16T21:27:16.666Z,85.40
2018-07-16T21:29:45.473Z,84.80
2018-07-16T21:32:14.636Z,83.90
2018-07-16T21:34:43.444Z,84.30
2018-07-16T21:37:12.115Z,83.80
2018-07-16T21:39:40.951Z,83.80
2018-07-16T21:42:09.750Z,83.90
2018-07-16T21:44:38.590Z,84.70
2018-07-16T21:47:07.342Z,85.10
2018-07-16T21:49:36.106Z,86.70
2018-07-16T21:52:05.017Z,85.30
2018-07-16T21:54:33.889Z,84.80
2018-07-16T21:57:02.653Z,83.60
2018-07-16T21:59:31.476Z,83.80
2018-07-16T22:02:00.271Z,84.80
2018-07-16T22:04:29.185Z,84.20
2018-07-16T22:06:57.972Z,84.70
2018-07-16T22:09:26.713Z,86.40
2018-07-16T22:11:55.614Z,86.50
2018-07-16T22:14:24.542Z,86.60
2018-07-16T22:16:53.273Z,87.00
2018-07-16T22:19:22.160Z,86.00
2018-07-16T22:21:51.038Z,86.90
2018-07-16T22:24:19.798Z,86.00
2018-07-16T22:26:48.539Z,85.60
2018-07-16T22:29:17.366Z,85.90
2018-07-16T22:31:46.174Z,85.10
2018-07-16T22:34:14.952Z,85.10
2018-07-16T22:36:43.625Z,85.40
2018-07-16T22:39:12.491Z,85.30
2018-07-16T22:41:41.294Z,84.80
2018-07-16T22:44:10.045Z,85.50
2018-07-16T22:46:38.862Z,85.30
2018-07-16T22:49:07.625Z,85.20
2018-07-16T22:51:36.417Z,85.00
2018-07-16T22:54:05.251Z,84.80
2018-07-16T22:56:34.111Z,85.30
2018-07-16T22:59:02.862Z,85.10
2018-07-16T23:01:31.672Z,85.20
2018-07-16T23:04:00.496Z,84.00
2018-07-16T23:06:29.357Z,83.40
2018-07-16T23:08:58.069Z,83.50
2018-07-16T23:11:26.909Z,84.60
2018-07-16T23:13:55.651Z,85.60
2018-07-16T23:16:24.362Z,85.10
2018-07-16T23:18:52.966Z,85.00
2018-07-16T23:21:21.781Z,85.10
2018-07-16T23:23:50.548Z,83.60
2018-07-16T23:26:19.317Z,83.60
2018-07-16T23:28:48.111Z,83.90
2018-07-16T23:31:16.888Z,83.20
2018-07-16T23:33:45.583Z,82.80
2018-07-16T23:36:14.381Z,82.20
2018-07-16T23:38:43.042Z,82.10
2018-07-16T23:41:11.895Z,82.30
2018-07-16T23:43:40.831Z,82.70
2018-07-16T23:46:09.645Z,83.30
2018-07-16T23:48:38.408Z,84.20
2018-07-16T23:51:07.106Z,84.20
2018-07-16T23:53:35.933Z,83.50
2018-07-16T23:56:04.794Z,83.10
2018-07-16T23:58:33.577Z,83.80
